aviador You're here:

PAKV Decoded Metar

KALTAG in AK, USA
Report Time2018-07-20 16:32:00
UTC Time2018-07-20 16:44:04
Flight Rules mvfr MVFR
WindCalm
Visibility9999 m
Phenomena:N/A
Clouds:Overcast 029 Hf
Expected CloudBase > 800 ft AGL from Temp-Dew spread
Ceiling2,900 ft
Temp13°C (ISA -2)
Dew Point11°C (88% RH)
QNH1025 hPa
Density Alt-220 ft
Elevation200 ft
Report Wrong Elevation
Raw Report
PAKV 201632Z AUTO 00000KT 10SM OVC029 13/11 A3027 RMK AO2
T01330111 TSNO=

Extra information for PAKV:More info

Metar Taf Metar & Taf Last 4 Metars F.Rules Stats Wind Profile Meteogram Temp Stats Airport Information Weather charts Add Link Nearby VenuesMetar ALERT Operation Metar Decoded Social comments

AIRNAV info for PAKV